createdAt,value
2018-09-12T00:55:26.768Z,3.40
2018-09-12T03:36:10.069Z,3.20
2018-09-12T03:37:09.636Z,3.10
2018-09-12T03:39:33.909Z,3.90
2018-09-12T03:41:19.058Z,3.50
2018-09-12T03:42:16.005Z,3.60
2018-09-12T03:43:15.778Z,3.40
2018-09-12T03:44:15.749Z,3.50
2018-09-12T03:45:15.722Z,3.20
2018-09-12T03:46:15.897Z,3.30
2018-09-12T03:47:15.671Z,3.50
2018-09-12T03:48:15.647Z,3.30
2018-09-12T03:49:15.624Z,3.50
2018-09-12T03:50:15.590Z,3.30
2018-09-12T03:51:15.568Z,3.10
2018-09-12T03:52:15.550Z,3.70
2018-09-12T03:53:15.511Z,3.00
2018-09-12T03:54:15.484Z,3.30
2018-09-12T03:55:15.465Z,2.80
2018-09-12T03:56:15.432Z,3.70
2018-09-12T03:57:15.407Z,3.10
2018-09-12T03:58:15.380Z,3.50
2018-09-12T03:59:15.353Z,3.40
2018-09-12T04:00:15.327Z,3.00
2018-09-12T04:01:15.302Z,3.20
2018-09-12T04:02:15.274Z,3.40
2018-09-12T04:03:15.248Z,4.20
2018-09-12T04:04:15.227Z,3.10
2018-09-12T04:05:15.386Z,3.10
2018-09-12T04:06:15.170Z,3.70
2018-09-12T04:07:15.149Z,2.40
2018-09-12T04:08:15.120Z,3.00
2018-09-12T04:09:15.095Z,3.10
2018-09-12T04:10:15.064Z,3.00
2018-09-12T04:11:15.441Z,3.30
2018-09-12T04:12:15.014Z,3.30
2018-09-12T04:13:14.987Z,3.10
2018-09-12T04:14:14.964Z,3.30
2018-09-12T04:15:14.934Z,3.30
2018-09-12T04:16:14.908Z,3.70
2018-09-12T04:17:14.882Z,3.70
2018-09-12T04:18:14.858Z,3.70
2018-09-12T04:19:14.829Z,3.30
2018-09-12T04:20:14.803Z,3.80
2018-09-12T04:21:14.777Z,3.10
2018-09-12T04:22:14.750Z,3.40
2018-09-12T04:23:14.734Z,3.40
2018-09-12T04:24:14.760Z,3.20
2018-09-12T04:25:14.672Z,3.30
2018-09-12T04:26:14.650Z,3.40
2018-09-12T04:27:14.619Z,3.20
2018-09-12T04:28:14.593Z,3.40
2018-09-12T04:29:14.567Z,3.70
2018-09-12T04:30:14.540Z,3.50
2018-09-12T04:31:14.514Z,3.80
2018-09-12T04:32:14.490Z,3.30
2018-09-12T04:33:14.477Z,3.20
2018-09-12T04:34:14.435Z,3.20
2018-09-12T04:35:14.425Z,4.00
2018-09-12T04:36:14.382Z,4.00
2018-09-12T04:37:14.357Z,3.50
2018-09-12T04:38:14.330Z,3.70
2018-09-12T04:39:14.304Z,3.70
2018-09-12T04:40:14.279Z,3.40
2018-09-12T04:41:14.256Z,3.80
2018-09-12T04:42:14.225Z,3.60
2018-09-12T04:43:14.199Z,3.60
2018-09-12T04:44:14.176Z,3.20
2018-09-12T04:45:14.147Z,3.20
2018-09-12T04:46:14.118Z,3.90
2018-09-12T04:47:14.093Z,3.80
2018-09-12T04:48:14.071Z,4.10
2018-09-12T04:49:14.041Z,3.60
2018-09-12T04:50:14.018Z,3.70
2018-09-12T04:51:13.988Z,3.40
2018-09-12T04:52:13.962Z,3.60
2018-09-12T04:53:13.936Z,3.70
2018-09-12T04:54:13.909Z,3.50
2018-09-12T04:55:13.886Z,3.90
2018-09-12T04:56:13.877Z,3.80
2018-09-12T04:57:13.830Z,3.60
2018-09-12T04:58:13.807Z,3.80
2018-09-12T04:59:13.777Z,3.80
2018-09-12T05:00:13.751Z,3.80
2018-09-12T05:01:13.725Z,3.70
2018-09-12T05:02:13.732Z,3.80
2018-09-12T05:03:13.873Z,4.10
2018-09-12T05:04:13.649Z,4.80
2018-09-12T05:05:13.619Z,3.50
2018-09-12T05:06:13.593Z,4.50
2018-09-12T05:07:13.567Z,4.60
2018-09-12T05:08:13.546Z,4.40
2018-09-12T05:09:13.513Z,4.20
2018-09-12T05:10:13.504Z,5.00
2018-09-12T05:11:13.459Z,4.80
2018-09-12T05:12:13.433Z,4.60
2018-09-12T05:13:13.407Z,4.40
2018-09-12T05:14:13.380Z,3.80
2018-09-12T05:15:13.355Z,4.50
2018-09-12T05:16:13.545Z,4.20
2018-09-12T05:17:13.509Z,4.20
2018-09-12T05:18:13.273Z,3.80
2018-09-12T05:19:13.247Z,4.50
2018-09-12T05:20:13.230Z,4.60
2018-09-12T05:21:13.194Z,4.60
2018-09-12T05:22:13.167Z,4.50
2018-09-12T05:23:13.145Z,4.80
2018-09-12T05:24:13.115Z,4.80
2018-09-12T05:25:13.089Z,3.90
2018-09-12T05:26:13.069Z,4.30
2018-09-12T05:27:13.237Z,4.90
2018-09-12T05:28:13.008Z,5.20
2018-09-12T05:29:12.982Z,4.30
2018-09-12T05:30:12.956Z,4.20
2018-09-12T05:31:12.929Z,3.80
2018-09-12T05:32:12.902Z,4.40
2018-09-12T05:33:12.878Z,4.70
2018-09-12T05:34:12.848Z,3.50
2018-09-12T05:35:12.824Z,4.30
2018-09-12T05:36:12.842Z,4.80
2018-09-12T05:37:12.770Z,4.70
2018-09-12T05:38:12.743Z,3.70
2018-09-12T05:39:12.716Z,4.50
2018-09-12T05:40:12.691Z,5.30
2018-09-12T05:41:12.663Z,4.40
2018-09-12T05:42:12.637Z,3.60
2018-09-12T05:43:13.217Z,5.20
2018-09-12T05:44:12.593Z,3.70
2018-09-12T05:45:12.558Z,3.40
2018-09-12T05:46:12.530Z,3.90
2018-09-12T05:47:12.507Z,3.20
2018-09-12T05:48:12.477Z,3.40
2018-09-12T05:49:12.452Z,4.00
2018-09-12T05:50:12.512Z,4.00
2018-09-12T05:51:12.399Z,4.20
2018-09-12T05:52:12.374Z,4.10
2018-09-12T05:53:12.346Z,6.20
2018-09-12T05:54:12.320Z,5.50
2018-09-12T05:55:12.293Z,6.80
2018-09-12T05:56:12.270Z,6.20
2018-09-12T05:57:12.243Z,5.80
2018-09-12T05:58:12.214Z,4.90
2018-09-12T05:59:12.187Z,5.90
2018-09-12T06:00:12.167Z,5.40
2018-09-12T06:01:12.135Z,4.80
2018-09-12T06:02:12.112Z,5.90
2018-09-12T06:03:12.089Z,4.90
2018-09-12T06:04:12.055Z,4.80
2018-09-12T06:05:12.031Z,4.60
2018-09-12T06:06:12.003Z,4.40
2018-09-12T06:07:12.163Z,4.70
2018-09-12T06:08:11.951Z,4.50
2018-09-12T06:09:11.924Z,4.60
2018-09-12T06:10:11.897Z,4.60
2018-09-12T06:11:11.872Z,6.10
2018-09-12T06:12:11.846Z,5.10
2018-09-12T06:13:11.820Z,4.50
2018-09-12T06:14:11.861Z,4.60
2018-09-12T06:15:11.775Z,4.50
2018-09-12T06:16:11.743Z,4.30
2018-09-12T06:17:11.715Z,4.80
2018-09-12T06:18:11.689Z,4.40
2018-09-12T06:19:11.662Z,4.50
2018-09-12T06:20:11.634Z,3.90
2018-09-12T06:21:11.612Z,3.80
2018-09-12T06:22:11.584Z,3.60
2018-09-12T06:23:11.558Z,4.30
2018-09-12T06:24:11.532Z,3.80
2018-09-12T06:25:11.504Z,3.70
2018-09-12T06:26:11.477Z,4.20
2018-09-12T06:27:11.452Z,4.50
2018-09-12T06:28:11.426Z,4.10
2018-09-12T06:29:11.401Z,4.30
2018-09-12T06:30:11.374Z,4.60
2018-09-12T06:31:11.347Z,4.10
2018-09-12T06:32:11.321Z,4.60
2018-09-12T06:33:11.298Z,4.40
2018-09-12T06:34:11.269Z,4.90
2018-09-12T06:35:11.244Z,4.00
2018-09-12T06:36:11.217Z,4.10
2018-09-12T06:37:11.191Z,4.30
2018-09-12T06:38:11.214Z,4.40
2018-09-12T06:39:11.141Z,4.40
2018-09-12T06:40:11.122Z,3.90
2018-09-12T06:41:11.091Z,4.20
2018-09-12T06:42:11.064Z,3.90
2018-09-12T06:43:11.034Z,4.40
2018-09-12T06:44:11.014Z,3.50
2018-09-12T06:45:10.985Z,4.50
2018-09-12T06:46:10.954Z,4.30
2018-09-12T06:47:10.934Z,4.60
2018-09-12T06:48:10.903Z,4.60
2018-09-12T06:49:10.877Z,5.00
2018-09-12T06:50:10.849Z,5.20
2018-09-12T06:51:10.823Z,4.80
2018-09-12T06:52:10.799Z,5.00
2018-09-12T06:53:10.772Z,5.50
2018-09-12T06:54:10.744Z,5.00
2018-09-12T06:55:10.720Z,4.90
2018-09-12T06:56:10.692Z,4.80
2018-09-12T06:57:10.666Z,4.80
2018-09-12T06:58:10.641Z,5.10
2018-09-12T06:59:10.614Z,5.30
2018-09-12T07:00:10.588Z,5.30
2018-09-12T07:01:10.628Z,5.50
2018-09-12T07:02:10.536Z,5.70
2018-09-12T07:03:10.508Z,5.10
2018-09-12T07:04:10.485Z,4.90
2018-09-12T07:05:10.457Z,5.00
2018-09-12T07:06:10.438Z,5.30
2018-09-12T07:07:10.402Z,5.90
2018-09-12T07:08:10.379Z,5.70
2018-09-12T07:09:10.352Z,5.40
2018-09-12T07:10:10.326Z,5.70
2018-09-12T07:11:10.302Z,5.30
2018-09-12T07:12:10.274Z,5.40
2018-09-12T07:13:10.248Z,5.30
2018-09-12T07:14:10.308Z,5.50
2018-09-12T07:15:10.197Z,4.60
2018-09-12T07:16:10.170Z,5.20
2018-09-12T07:17:10.144Z,4.70
2018-09-12T07:18:10.117Z,4.40
2018-09-12T07:19:10.091Z,3.90
2018-09-12T07:20:10.067Z,4.50
2018-09-12T07:21:10.041Z,5.40
2018-09-12T07:22:10.016Z,5.20
2018-09-12T07:23:09.991Z,5.10
2018-09-12T07:24:09.962Z,6.00
2018-09-12T07:25:09.939Z,5.50
2018-09-12T07:26:09.911Z,5.50
2018-09-12T07:27:09.884Z,4.90
2018-09-12T07:28:09.858Z,4.90
2018-09-12T07:29:09.832Z,4.60
2018-09-12T07:30:09.815Z,5.20
2018-09-12T07:31:09.780Z,5.00
2018-09-12T07:32:09.756Z,5.70
2018-09-12T07:33:09.728Z,4.90
2018-09-12T07:34:09.702Z,5.50
2018-09-12T07:35:09.677Z,5.90
2018-09-12T07:36:09.650Z,5.70
2018-09-12T07:37:09.626Z,5.80
2018-09-12T07:38:09.600Z,5.50
2018-09-12T07:39:09.578Z,5.30
2018-09-12T07:40:09.547Z,5.10
2018-09-12T07:41:09.521Z,4.60
2018-09-12T07:42:09.498Z,5.80
2018-09-12T07:43:09.469Z,5.00
2018-09-12T07:44:09.443Z,4.90
2018-09-12T07:45:09.417Z,5.70
2018-09-12T07:46:09.395Z,6.10
2018-09-12T07:47:09.368Z,6.90
2018-09-12T07:48:09.339Z,6.90
2018-09-12T07:49:09.428Z,6.70
2018-09-12T07:50:09.287Z,6.50
2018-09-12T07:51:09.261Z,6.90
2018-09-12T07:52:09.235Z,5.70
2018-09-12T07:53:09.210Z,6.40
2018-09-12T07:54:09.194Z,6.10
2018-09-12T07:55:09.179Z,5.50
2018-09-12T07:56:09.520Z,5.90
2018-09-12T07:57:09.105Z,5.40
2018-09-12T07:58:09.083Z,4.90
2018-09-12T07:59:09.084Z,4.50
2018-09-12T08:00:09.125Z,5.00
2018-09-12T08:01:09.030Z,4.60
2018-09-12T08:02:08.975Z,4.40
2018-09-12T08:03:08.948Z,4.60
2018-09-12T08:04:08.925Z,5.10
2018-09-12T08:05:08.938Z,4.50
2018-09-12T08:06:08.871Z,4.60
2018-09-12T08:07:08.863Z,5.10
2018-09-12T08:08:08.863Z,4.30
2018-09-12T08:09:08.808Z,4.50
2018-09-12T08:10:08.799Z,4.80
2018-09-12T08:11:08.741Z,4.90
2018-09-12T08:12:08.777Z,4.90
2018-09-12T08:13:08.691Z,5.10
2018-09-12T08:14:08.665Z,5.30
2018-09-12T08:15:08.640Z,5.30
2018-09-12T08:16:08.613Z,5.70
2018-09-12T08:17:08.588Z,5.50
2018-09-12T08:18:08.564Z,5.60
2018-09-12T08:19:08.543Z,5.00
2018-09-12T08:20:08.514Z,5.50
2018-09-12T08:21:08.487Z,4.80
2018-09-12T08:22:08.461Z,5.30
2018-09-12T08:23:08.434Z,5.70
2018-09-12T08:24:08.410Z,4.90
2018-09-12T08:25:08.391Z,5.30
2018-09-12T08:26:08.369Z,5.50
2018-09-12T08:27:08.331Z,5.70
2018-09-12T08:28:08.306Z,5.10
2018-09-12T08:29:08.281Z,5.90
2018-09-12T08:30:08.255Z,5.50
2018-09-12T08:31:08.230Z,5.30
2018-09-12T08:32:08.414Z,5.80
2018-09-12T08:33:08.181Z,5.30
2018-09-12T08:34:08.154Z,5.30
2018-09-12T08:35:08.129Z,5.90
2018-09-12T08:36:08.113Z,5.60
2018-09-12T08:37:08.084Z,5.90
2018-09-12T08:38:08.056Z,6.20
2018-09-12T08:39:08.032Z,5.80
2018-09-12T08:40:08.007Z,5.40
2018-09-12T08:41:07.981Z,5.60
2018-09-12T08:42:08.008Z,4.90
2018-09-12T08:43:07.931Z,5.50
2018-09-12T08:44:07.910Z,5.30
2018-09-12T08:45:07.883Z,5.20
2018-09-12T08:46:07.856Z,4.80
2018-09-12T08:47:07.832Z,4.20
2018-09-12T08:48:07.807Z,5.10
2018-09-12T08:49:07.787Z,4.60
2018-09-12T08:50:07.765Z,5.00
2018-09-12T08:51:07.734Z,5.10
2018-09-12T08:52:07.709Z,4.70
2018-09-12T08:53:07.685Z,5.30
2018-09-12T08:54:07.664Z,5.20
2018-09-12T08:55:07.636Z,5.00
2018-09-12T08:56:07.612Z,4.70
2018-09-12T08:57:07.608Z,4.90
2018-09-12T08:58:07.562Z,5.70
2018-09-12T08:59:07.546Z,5.10
2018-09-12T09:00:07.518Z,5.40
2018-09-12T09:01:07.491Z,5.40
2018-09-12T09:02:07.469Z,5.20
2018-09-12T09:03:07.446Z,5.30
2018-09-12T09:04:07.449Z,4.70
2018-09-12T09:05:07.394Z,5.00
2018-09-12T09:06:07.368Z,4.80
2018-09-12T09:07:07.345Z,5.00
2018-09-12T09:08:07.362Z,5.30
2018-09-12T09:09:07.298Z,5.30
2018-09-12T09:10:07.274Z,4.80
2018-09-12T09:11:07.254Z,4.80
2018-09-12T09:12:07.435Z,4.60
2018-09-12T09:13:07.202Z,5.10
2018-09-12T09:14:07.179Z,5.10
2018-09-12T09:15:07.158Z,4.40
2018-09-12T09:16:07.131Z,5.00
2018-09-12T09:17:07.115Z,4.70
2018-09-12T09:18:49.450Z,5.20
2018-09-12T09:19:49.213Z,5.40
2018-09-12T09:20:49.187Z,5.00
2018-09-12T09:21:49.169Z,5.20
2018-09-12T09:22:49.142Z,5.40
2018-09-12T09:23:49.124Z,5.90
2018-09-12T09:24:49.106Z,5.00
2018-09-12T09:25:49.073Z,5.50
2018-09-12T09:26:49.048Z,4.90
2018-09-12T09:27:49.024Z,5.30
2018-09-12T09:28:49.000Z,5.40
2018-09-12T09:29:48.980Z,5.80
2018-09-12T09:30:48.958Z,5.50
2018-09-12T09:31:48.929Z,6.10
2018-09-12T09:39:26.292Z,5.90
2018-09-12T09:40:26.073Z,6.10
2018-09-12T09:41:26.244Z,6.30
2018-09-12T09:42:26.018Z,7.10
2018-09-12T09:43:25.993Z,6.40
2018-09-12T09:44:25.968Z,6.60
2018-09-12T09:45:25.990Z,6.70
2018-09-12T09:46:25.920Z,6.50
2018-09-12T09:47:25.895Z,6.00
2018-09-12T09:48:25.993Z,6.40
2018-09-12T09:49:25.846Z,6.40
2018-09-12T09:50:25.824Z,6.70
2018-09-12T09:51:25.802Z,6.10
2018-09-12T09:52:25.773Z,6.30
2018-09-12T09:53:25.749Z,6.40
2018-09-12T09:54:25.730Z,4.80
2018-09-12T09:55:25.701Z,5.20
2018-09-12T09:56:25.681Z,5.90
2018-09-12T09:57:25.652Z,5.50
2018-09-12T09:58:25.634Z,6.40
2018-09-12T09:59:25.606Z,5.30
2018-09-12T10:00:25.657Z,4.80
2018-09-12T10:01:25.563Z,5.30
2018-09-12T10:02:25.545Z,4.40
2018-09-12T10:03:25.510Z,5.00
2018-09-12T10:04:25.487Z,5.00
2018-09-12T10:05:25.463Z,4.60
2018-09-12T10:06:25.444Z,4.90
2018-09-12T10:07:25.414Z,5.20
2018-09-12T10:08:25.389Z,5.10
2018-09-12T10:09:25.367Z,5.20
2018-09-12T10:10:25.341Z,4.90
2018-09-12T10:11:25.320Z,5.10
2018-09-12T10:12:25.294Z,5.30
2018-09-12T10:13:25.272Z,5.10
2018-09-12T10:14:25.249Z,4.90
2018-09-12T10:15:25.222Z,5.10
2018-09-12T10:16:25.197Z,4.80
2018-09-12T10:17:25.173Z,4.50
2018-09-12T10:18:25.159Z,4.90
2018-09-12T10:19:25.128Z,4.60
2018-09-12T10:20:25.101Z,4.80
2018-09-12T10:21:25.076Z,5.20
2018-09-12T10:22:25.057Z,4.80
2018-09-12T10:23:25.031Z,4.80
2018-09-12T10:24:25.140Z,4.50
2018-09-12T10:25:24.981Z,4.40
2018-09-12T10:26:24.953Z,4.30
2018-09-12T10:27:24.929Z,5.10
2018-09-12T10:28:24.909Z,4.80
2018-09-12T10:29:24.879Z,4.20
2018-09-12T10:30:24.857Z,5.10
2018-09-12T10:31:24.833Z,4.50
2018-09-12T10:32:24.806Z,4.40
2018-09-12T10:33:24.781Z,4.10
2018-09-12T10:34:24.758Z,4.30
2018-09-12T10:35:24.738Z,4.00
2018-09-12T10:36:24.709Z,4.60
2018-09-12T10:37:24.685Z,4.20
2018-09-12T10:38:24.662Z,4.00
2018-09-12T10:39:24.636Z,4.40
2018-09-12T10:40:24.620Z,4.40
2018-09-12T10:41:24.591Z,4.40
2018-09-12T10:42:24.567Z,4.40
2018-09-12T10:43:24.546Z,4.20
2018-09-12T10:44:24.513Z,4.60
2018-09-12T10:45:24.496Z,4.90
2018-09-12T10:46:24.467Z,4.70
2018-09-12T10:47:24.441Z,5.00
2018-09-12T10:48:24.415Z,5.60
2018-09-12T10:49:24.390Z,6.40
2018-09-12T10:50:24.366Z,6.90
2018-09-12T10:51:24.341Z,6.50
2018-09-12T10:52:24.315Z,7.20
2018-09-12T10:53:24.290Z,6.10
2018-09-12T10:54:24.271Z,6.80
2018-09-12T10:55:24.241Z,6.90
2018-09-12T10:56:24.214Z,6.50
2018-09-12T10:57:24.189Z,6.40
2018-09-12T10:58:24.164Z,6.00
2018-09-12T10:59:24.141Z,6.40
2018-09-12T11:00:24.117Z,6.50
2018-09-12T11:01:24.088Z,6.30
2018-09-12T11:02:24.065Z,6.40
2018-09-12T11:03:24.739Z,6.60
2018-09-12T11:04:24.059Z,7.10
2018-09-12T11:05:23.986Z,7.20
2018-09-12T11:06:23.961Z,7.00
2018-09-12T11:07:23.937Z,7.80
2018-09-12T11:08:23.911Z,8.40
2018-09-12T11:09:23.884Z,8.60
2018-09-12T11:10:23.859Z,8.10
2018-09-12T11:11:23.834Z,7.80
2018-09-12T11:12:23.809Z,7.30
2018-09-12T11:13:23.784Z,6.80
2018-09-12T11:14:23.759Z,6.50
2018-09-12T11:15:23.819Z,7.00
2018-09-12T11:16:23.708Z,5.80
2018-09-12T11:17:23.684Z,5.60
2018-09-12T11:18:23.659Z,6.90
2018-09-12T11:19:23.637Z,6.30
2018-09-12T11:20:23.614Z,6.60
2018-09-12T11:21:23.584Z,7.00
2018-09-12T11:22:23.566Z,7.40
2018-09-12T11:23:23.545Z,6.50
2018-09-12T11:24:23.510Z,6.30
2018-09-12T11:25:23.487Z,6.30
2018-09-12T11:26:23.463Z,6.70
2018-09-12T11:27:23.438Z,6.80
2018-09-12T11:28:23.413Z,6.90
2018-09-12T11:29:23.394Z,8.00
2018-09-12T11:30:23.364Z,7.00
2018-09-12T11:31:23.339Z,6.40
2018-09-12T11:32:23.314Z,6.40
2018-09-12T11:33:23.294Z,5.10
2018-09-12T11:34:23.332Z,5.60
2018-09-12T11:35:23.445Z,4.80
2018-09-12T11:42:36.283Z,4.70
2018-09-12T11:43:36.058Z,4.80
2018-09-12T11:47:35.964Z,5.20
2018-09-12T11:48:35.940Z,4.90
2018-09-12T11:49:35.919Z,4.80
2018-09-12T11:50:35.906Z,5.00
2018-09-12T11:51:35.871Z,5.00
2018-09-12T11:52:35.848Z,5.30
2018-09-12T11:53:35.827Z,4.30
2018-09-12T11:54:35.802Z,4.40
2018-09-12T11:55:35.837Z,3.40
2018-09-12T11:56:35.754Z,3.50
2018-09-12T11:57:35.732Z,3.70
2018-09-12T11:58:35.709Z,3.60
2018-09-12T11:59:35.687Z,3.40
2018-09-12T12:00:35.662Z,3.70
2018-09-12T12:01:35.656Z,3.80
2018-09-12T12:02:35.616Z,3.70
2018-09-12T12:03:35.590Z,4.40
2018-09-12T12:04:35.577Z,3.90
2018-09-12T12:05:35.546Z,4.20
2018-09-12T12:06:35.528Z,3.80
2018-09-12T12:07:35.501Z,4.00
2018-09-12T12:08:35.477Z,3.60
2018-09-12T12:09:35.457Z,3.40
2018-09-12T12:10:35.431Z,3.60
2018-09-12T12:11:35.406Z,3.40
2018-09-12T12:12:35.384Z,3.80
2018-09-12T12:13:35.369Z,3.50
2018-09-12T12:14:35.351Z,3.90
2018-09-12T12:15:35.319Z,4.90
2018-09-12T12:16:35.337Z,4.70
2018-09-12T12:17:35.269Z,4.70
2018-09-12T12:18:35.246Z,4.40
2018-09-12T12:19:35.220Z,5.00
2018-09-12T12:20:35.200Z,4.90
2018-09-12T12:21:35.176Z,4.80
2018-09-12T12:22:35.159Z,4.70
2018-09-12T12:23:35.126Z,5.20
2018-09-12T12:24:35.103Z,4.70
2018-09-12T12:25:35.086Z,4.50
2018-09-12T12:26:35.057Z,4.20
2018-09-12T12:27:35.034Z,3.80
2018-09-12T12:28:35.008Z,3.80
2018-09-12T12:29:34.989Z,3.90
2018-09-12T12:30:34.963Z,3.90
2018-09-12T12:31:34.938Z,3.70
2018-09-12T12:32:34.915Z,3.30
2018-09-12T12:33:34.895Z,4.20
2018-09-12T12:34:34.866Z,3.90
2018-09-12T12:35:34.937Z,4.10
2018-09-12T12:36:34.821Z,3.20
2018-09-12T12:37:34.793Z,3.20
2018-09-12T12:38:34.773Z,3.50
2018-09-12T12:39:45.621Z,3.50
2018-09-12T12:51:36.336Z,7.10
2018-09-12T12:52:36.311Z,7.60
2018-09-12T12:53:36.084Z,7.90
2018-09-12T12:54:36.059Z,7.40
2018-09-12T12:55:36.035Z,7.60
2018-09-12T12:56:36.009Z,7.40
2018-09-12T12:57:36.187Z,7.20
2018-09-12T14:06:51.119Z,3.60
2018-09-12T14:07:50.834Z,4.00
2018-09-12T14:08:50.820Z,4.50
2018-09-12T14:09:50.787Z,4.70
2018-09-12T14:10:50.758Z,5.40
2018-09-12T14:11:50.729Z,5.60
2018-09-12T14:12:50.706Z,5.80
2018-09-12T14:13:50.683Z,6.60
2018-09-12T14:14:50.654Z,6.40
2018-09-12T14:15:50.630Z,7.20
2018-09-12T14:16:50.602Z,7.40
2018-09-12T14:17:50.578Z,7.50
2018-09-12T14:18:50.553Z,7.60
2018-09-12T14:19:50.526Z,7.20
2018-09-12T14:20:50.501Z,7.90
2018-09-12T14:21:50.481Z,7.00
2018-09-12T14:22:50.751Z,7.10
2018-09-12T14:23:50.426Z,8.20
2018-09-12T14:24:50.406Z,7.00
2018-09-12T14:25:50.377Z,7.50
2018-09-12T14:26:50.351Z,7.20
2018-09-12T14:27:50.333Z,6.60
2018-09-12T14:28:50.310Z,6.90
2018-09-12T14:29:50.276Z,7.10
2018-09-12T14:30:50.254Z,6.40
2018-09-12T14:31:50.235Z,5.50
2018-09-12T14:32:50.208Z,5.80
2018-09-12T14:33:50.188Z,5.90
2018-09-12T14:34:50.152Z,5.20
2018-09-12T14:35:50.129Z,5.50
2018-09-12T14:36:50.102Z,5.80
2018-09-12T14:37:50.076Z,5.90
2018-09-12T14:38:50.082Z,5.30
2018-09-12T14:39:50.027Z,5.00
2018-09-12T14:40:50.001Z,5.20
2018-09-12T14:41:49.993Z,4.90
2018-09-12T14:42:49.952Z,5.50
2018-09-12T15:04:54.657Z,2.90
2018-09-12T15:05:54.401Z,3.00
2018-09-12T15:06:54.385Z,2.90
2018-09-12T15:07:54.349Z,2.60
2018-09-12T15:08:54.323Z,3.00
2018-09-12T15:09:54.296Z,2.70
2018-09-12T15:10:54.274Z,2.70
2018-09-12T15:11:54.245Z,2.90
2018-09-12T15:12:54.221Z,3.30
2018-09-12T15:13:54.196Z,2.90
2018-09-12T15:14:54.183Z,2.70
2018-09-12T15:15:54.146Z,2.60
2018-09-12T15:16:54.136Z,3.00
2018-09-12T15:17:54.092Z,2.60
2018-09-12T15:18:54.069Z,2.80
2018-09-12T15:19:54.045Z,2.70
2018-09-12T15:20:54.018Z,2.90
2018-09-12T15:21:53.993Z,3.50
2018-09-12T15:22:54.473Z,2.70
2018-09-12T15:23:53.944Z,2.40
2018-09-12T15:24:54.125Z,2.60
2018-09-12T15:25:53.895Z,2.30
2018-09-12T15:26:53.894Z,2.40
2018-09-12T15:27:53.843Z,2.70
2018-09-12T15:28:53.826Z,2.10
2018-09-12T15:29:53.794Z,2.50
2018-09-12T15:44:56.972Z,2.30
2018-09-12T15:45:56.742Z,2.30
2018-09-12T15:46:56.715Z,2.20
2018-09-12T15:47:56.690Z,2.40
2018-09-12T15:48:56.666Z,2.40
2018-09-12T15:49:56.640Z,1.80
2018-09-12T15:50:56.657Z,2.20
2018-09-12T15:51:56.791Z,2.20
2018-09-12T15:52:56.564Z,2.30
2018-09-12T15:53:56.537Z,2.40
2018-09-12T15:54:56.521Z,2.40
2018-09-12T15:55:56.487Z,2.20
2018-09-12T15:56:56.462Z,2.20
2018-09-12T15:57:56.538Z,2.50
2018-09-12T15:58:56.413Z,2.10
2018-09-12T15:59:56.391Z,2.30
2018-09-12T16:00:56.364Z,2.20
2018-09-12T16:01:56.335Z,2.50
2018-09-12T16:02:56.310Z,2.90
2018-09-12T16:03:56.416Z,2.10
2018-09-12T16:04:56.261Z,2.20
2018-09-12T16:05:56.233Z,2.10
2018-09-12T16:06:56.216Z,2.20
2018-09-12T16:07:56.186Z,2.40
2018-09-12T16:08:56.161Z,2.70
2018-09-12T16:09:56.135Z,1.90
2018-09-12T16:10:56.112Z,2.10
2018-09-12T16:11:56.088Z,2.10
2018-09-12T16:12:56.059Z,2.30
2018-09-12T16:13:56.032Z,2.00
2018-09-12T16:14:56.007Z,2.60
2018-09-12T16:15:55.981Z,2.30
2018-09-12T16:16:56.007Z,2.40
2018-09-12T16:17:55.931Z,2.50
2018-09-12T16:18:55.905Z,2.20
2018-09-12T16:19:55.880Z,2.30
2018-09-12T16:20:55.917Z,2.30
2018-09-12T16:21:55.832Z,2.00
2018-09-12T16:22:55.823Z,2.10
2018-09-12T16:24:38.141Z,2.30
2018-09-12T16:25:37.903Z,2.10
2018-09-12T16:26:37.878Z,2.00
2018-09-12T16:27:37.854Z,2.40
2018-09-12T16:28:37.827Z,2.20
2018-09-12T16:29:37.803Z,2.20
2018-09-12T16:30:37.775Z,2.00
2018-09-12T16:31:37.750Z,2.20
2018-09-12T16:32:37.799Z,2.10
2018-09-12T16:33:37.698Z,2.10
2018-09-12T16:34:37.676Z,2.20
2018-09-12T16:35:37.647Z,2.20
2018-09-12T16:36:37.621Z,2.60
2018-09-12T16:37:37.596Z,2.50
2018-09-12T16:38:37.570Z,2.10
2018-09-12T16:39:37.544Z,2.60
2018-09-12T16:40:37.519Z,2.50
2018-09-12T16:41:37.493Z,2.10
2018-09-12T16:42:37.467Z,2.20
2018-09-12T16:43:37.442Z,2.60
2018-09-12T16:44:37.416Z,2.40
2018-09-12T16:45:37.388Z,2.50
2018-09-12T16:46:37.364Z,2.50
2018-09-12T16:47:37.354Z,2.10
2018-09-12T16:48:37.516Z,2.40
2018-09-12T16:49:37.289Z,2.70
2018-09-12T16:50:37.276Z,2.40
2018-09-12T16:51:37.391Z,2.40
2018-09-12T16:52:37.209Z,2.30
2018-09-12T16:53:37.183Z,2.40
2018-09-12T16:54:37.162Z,2.60
2018-09-12T16:55:37.137Z,2.50
2018-09-12T16:56:37.134Z,2.50
2018-09-12T16:57:37.081Z,2.40
2018-09-12T16:58:37.055Z,2.70
2018-09-12T16:59:37.030Z,2.40
2018-09-12T17:00:37.004Z,2.40
2018-09-12T17:01:36.977Z,2.60
2018-09-12T17:02:36.984Z,2.60
2018-09-12T17:03:36.927Z,2.50
2018-09-12T17:04:36.903Z,2.50
2018-09-12T17:05:36.875Z,2.40
2018-09-12T17:06:36.849Z,2.80
2018-09-12T17:07:36.823Z,2.50
2018-09-12T17:08:36.796Z,3.00
2018-09-12T17:09:36.770Z,2.50
2018-09-12T17:10:36.746Z,2.50
2018-09-12T17:11:36.722Z,2.50
2018-09-12T17:12:36.896Z,2.30
2018-09-12T17:13:36.667Z,2.40
2018-09-12T17:14:36.642Z,2.60
2018-09-12T17:15:36.617Z,2.30
2018-09-12T17:16:36.793Z,2.30
2018-09-12T17:17:36.565Z,2.30
2018-09-12T17:18:36.541Z,2.40
2018-09-12T17:19:36.512Z,2.20
2018-09-12T17:20:36.500Z,2.30
2018-09-12T17:21:36.481Z,2.80
2018-09-12T17:22:36.435Z,2.80
2018-09-12T17:23:36.408Z,2.20
2018-09-12T17:24:36.584Z,3.00
2018-09-12T17:25:36.356Z,2.40
2018-09-12T17:26:36.331Z,2.60
2018-09-12T17:27:36.305Z,2.80
2018-09-12T17:37:02.274Z,2.40
2018-09-12T17:38:02.049Z,2.80
2018-09-12T17:39:02.018Z,2.50
2018-09-12T17:40:01.991Z,2.50
2018-09-12T17:41:01.965Z,2.90
2018-09-12T17:42:01.936Z,2.90
2018-09-12T17:43:01.913Z,3.00
2018-09-12T17:44:01.885Z,2.90
2018-09-12T17:45:01.861Z,2.80
2018-09-12T17:46:01.833Z,2.50
2018-09-12T17:47:01.809Z,2.70
2018-09-12T17:48:01.780Z,2.80
2018-09-12T17:49:01.758Z,2.90
2018-09-12T17:50:01.727Z,3.00
2018-09-12T17:51:01.705Z,2.80
2018-09-12T17:52:01.679Z,3.10
2018-09-12T17:53:01.648Z,3.20
2018-09-12T17:54:01.622Z,2.80
2018-09-12T17:55:01.604Z,3.30
2018-09-12T17:56:01.573Z,2.80
2018-09-12T17:57:01.547Z,2.40
2018-09-12T17:58:01.519Z,3.30
2018-09-12T17:59:01.490Z,2.80
2018-09-12T18:00:01.464Z,3.20
2018-09-12T18:01:01.438Z,3.40
2018-09-12T18:02:01.411Z,3.10
2018-09-12T18:03:01.384Z,3.00
2018-09-12T18:04:01.359Z,3.00
2018-09-12T18:05:01.332Z,3.10
2018-09-12T18:06:01.306Z,2.40
2018-09-12T18:07:01.279Z,2.30
2018-09-12T18:08:01.253Z,2.60
2018-09-12T18:09:01.228Z,2.90
2018-09-12T18:10:01.210Z,2.70
2018-09-12T18:11:01.217Z,3.00
2018-09-12T18:12:01.151Z,2.60
2018-09-12T18:13:01.526Z,2.70
2018-09-12T18:14:01.099Z,2.70
2018-09-12T18:15:01.071Z,2.70
2018-09-12T18:16:01.042Z,2.60
2018-09-12T18:17:01.017Z,2.50
2018-09-12T18:18:00.990Z,2.60
2018-09-12T18:19:00.964Z,2.90
2018-09-12T18:20:00.938Z,2.40
2018-09-12T18:21:00.913Z,2.80
2018-09-12T18:22:00.889Z,2.90
2018-09-12T18:23:00.876Z,3.20
2018-09-12T18:24:00.832Z,2.90
2018-09-12T18:25:00.810Z,2.60
2018-09-12T18:26:00.788Z,2.60
2018-09-12T18:27:00.757Z,2.80
2018-09-12T18:28:00.728Z,2.80
2018-09-12T18:29:00.704Z,2.90
2018-09-12T18:30:00.675Z,3.10
2018-09-12T18:31:00.679Z,3.10
2018-09-12T18:32:00.623Z,3.10
2018-09-12T18:33:00.597Z,2.70
2018-09-12T18:34:00.569Z,2.70
2018-09-12T18:35:00.544Z,2.90
2018-09-12T18:36:00.546Z,2.90
2018-09-12T18:37:00.493Z,2.50
2018-09-12T18:38:00.464Z,2.70
2018-09-12T18:39:00.438Z,2.70
2018-09-12T18:40:00.411Z,2.90
2018-09-12T18:41:00.385Z,3.00
2018-09-12T18:42:00.358Z,3.00
2018-09-12T18:43:00.422Z,2.70
2018-09-12T18:44:00.312Z,2.70
2018-09-12T18:45:00.282Z,2.70
2018-09-12T18:46:00.263Z,2.70
2018-09-12T18:47:00.226Z,3.10
2018-09-12T18:48:00.202Z,2.80
2018-09-12T18:49:00.175Z,3.20
2018-09-12T18:50:00.148Z,2.80
2018-09-12T18:51:00.123Z,3.20
2018-09-12T18:52:00.096Z,3.30
2018-09-12T18:53:00.070Z,2.90
2018-09-12T18:54:00.055Z,2.80
2018-09-12T18:55:00.017Z,2.60
2018-09-12T18:55:59.991Z,2.80
2018-09-12T18:56:59.965Z,3.50
2018-09-12T18:57:59.937Z,3.20
2018-09-12T18:58:59.913Z,2.90
2018-09-12T18:59:59.885Z,2.80
2018-09-12T19:00:59.860Z,3.20
2018-09-12T19:01:59.832Z,2.90
2018-09-12T19:02:59.807Z,3.50
2018-09-12T19:03:59.780Z,3.10
2018-09-12T19:04:59.759Z,3.20
2018-09-12T19:05:59.727Z,2.70
2018-09-12T19:06:59.854Z,2.80
2018-09-12T19:07:59.688Z,2.90
2018-09-12T19:08:59.651Z,2.70
2018-09-12T19:09:59.621Z,3.10
2018-09-12T19:10:59.594Z,2.80
2018-09-12T19:11:59.571Z,3.00
2018-09-12T19:12:59.599Z,3.10
2018-09-12T19:13:59.521Z,3.20
2018-09-12T19:14:59.490Z,3.00